Okolona, Kentucky
Current Conditions -  °F | °C
As of 1:56 AM on Monday 24 Nov 2014 (Local Time) from KSDF Reporting Station
Overcast Overcast  
Wind Chill: 61°   Ceiling: 2100
Heat Index: 61°   Visibility: 10mi
Dew Point: 57°   Wind: 15mph
Humidity: 87%   Direction: 210°SSW
Pressure: 29.36"   Gusts: 23mph
Location:  38.14°N, 85.69°W
Report Text: KSDF 240656Z 21013G20KT 10SM SCT015 BKN021 OVC038 16/14 A2936 RMK AO2 RAB04E24B40E54 SLP938 P0002 T01610139 $
Loading
Personal Weather Stations






























Interactive Weather Map New forecast layout! Learn more

10-Day Weather Forecast

Advertisements
Track Severe Weather on mobile